Time;durP1;ratioP1;P1;durP2;ratioP2;P2;SDS_P1;SDS_P2;PMS_P1;PMS_P2;Temp;Humidity;BMP_temperature;BMP_pressure;BME280_temperature;BME280_humidity;BME280_pressure;Samples;Min_cycle;Max_cycle;Signal;HPM_P1;HPM_P2
2021/09/06 00:01:44;;;;;;;4.38;2.42;;;12.00;99.90;;;;;;4996334;28;20487;-45
2021/09/06 00:04:10;;;;;;;4.43;2.17;;;12.00;99.90;;;;;;4996157;28;20030;-42
2021/09/06 00:06:39;;;;;;;3.53;2.42;;;12.00;99.90;;;;;;4996153;28;20018;-43
2021/09/06 00:09:04;;;;;;;2.88;2.20;;;12.00;99.90;;;;;;4996177;28;20027;-42
2021/09/06 00:11:30;;;;;;;4.28;2.65;;;12.00;99.90;;;;;;4995276;28;20032;-42
2021/09/06 00:13:55;;;;;;;6.10;2.47;;;12.00;99.90;;;;;;4996043;28;20033;-44
2021/09/06 00:16:21;;;;;;;6.57;2.47;;;12.00;99.90;;;;;;4996186;28;20469;-42
2021/09/06 00:18:47;;;;;;;6.78;2.95;;;12.00;99.90;;;;;;4995991;28;20035;-45
2021/09/06 00:21:12;;;;;;;4.22;2.95;;;12.00;99.90;;;;;;4995813;28;20669;-43
2021/09/06 00:23:38;;;;;;;7.70;3.10;;;12.00;99.90;;;;;;4995969;28;20022;-42
2021/09/06 00:26:04;;;;;;;3.20;2.13;;;12.00;99.90;;;;;;4995371;28;20026;-45
2021/09/06 00:28:30;;;;;;;5.68;2.72;;;12.00;99.90;;;;;;4995570;28;20026;-42
2021/09/06 00:30:56;;;;;;;7.13;2.72;;;12.00;99.90;;;;;;4995741;28;20022;-43
2021/09/06 00:33:22;;;;;;;3.85;2.60;;;11.90;99.90;;;;;;4995849;28;20054;-43
2021/09/06 00:35:49;;;;;;;4.60;2.70;;;11.80;99.90;;;;;;4995687;28;20077;-43
2021/09/06 00:38:17;;;;;;;5.07;2.80;;;11.80;99.90;;;;;;4995574;28;20050;-42
2021/09/06 00:40:44;;;;;;;6.18;2.72;;;11.70;99.90;;;;;;4995687;28;20081;-42
2021/09/06 00:43:10;;;;;;;5.07;2.80;;;11.70;99.90;;;;;;4994584;28;20437;-42
2021/09/06 00:45:37;;;;;;;4.85;2.78;;;11.70;99.90;;;;;;4995563;28;20030;-42
2021/09/06 00:48:03;;;;;;;5.43;2.50;;;11.60;99.90;;;;;;4995367;28;20411;-42
2021/09/06 00:50:29;;;;;;;5.43;3.00;;;11.60;99.90;;;;;;4995314;28;20303;-42
2021/09/06 00:52:54;;;;;;;5.55;2.70;;;11.60;99.90;;;;;;4995452;28;20080;-43
2021/09/06 00:55:21;;;;;;;7.80;3.05;;;11.60;99.90;;;;;;4995475;28;20034;-42
2021/09/06 00:57:47;;;;;;;8.57;3.50;;;11.50;99.90;;;;;;4994297;28;20048;-42
2021/09/06 01:00:14;;;;;;;5.72;3.00;;;11.50;99.90;;;;;;4995174;28;20194;-42
2021/09/06 01:02:40;;;;;;;4.00;2.35;;;11.50;99.90;;;;;;4995050;28;20025;-45
2021/09/06 01:05:06;;;;;;;6.30;3.10;;;11.50;99.90;;;;;;4994920;28;20371;-44
2021/09/06 01:07:32;;;;;;;4.70;2.85;;;11.50;99.90;;;;;;4995086;28;20038;-42
2021/09/06 01:10:02;;;;;;;5.45;3.38;;;11.60;99.90;;;;;;4994925;28;20082;-46
2021/09/06 01:12:28;;;;;;;4.65;3.13;;;11.50;99.90;;;;;;4994135;28;20081;-41
2021/09/06 01:14:53;;;;;;;4.18;3.00;;;11.50;99.90;;;;;;4994949;28;20042;-43
2021/09/06 01:17:21;;;;;;;4.00;2.50;;;11.50;99.90;;;;;;4995030;28;20031;-46
2021/09/06 01:19:47;;;;;;;4.80;3.00;;;11.50;99.90;;;;;;4994908;28;20438;-44
2021/09/06 01:22:13;;;;;;;3.90;2.92;;;11.50;99.90;;;;;;4994912;28;20112;-42
2021/09/06 01:24:38;;;;;;;5.40;2.53;;;11.50;99.90;;;;;;4994811;28;20022;-42
2021/09/06 01:27:04;;;;;;;5.10;2.95;;;11.40;99.90;;;;;;4993839;28;20030;-42
2021/09/06 01:29:30;;;;;;;5.13;3.00;;;11.40;99.90;;;;;;4994800;28;20535;-42
2021/09/06 01:31:56;;;;;;;7.60;3.65;;;11.40;99.90;;;;;;4994919;28;20030;-43
2021/09/06 01:34:22;;;;;;;5.28;3.30;;;11.40;99.90;;;;;;4994518;28;20478;-43
2021/09/06 01:36:47;;;;;;;4.35;2.70;;;11.40;99.90;;;;;;4994617;28;20042;-45
2021/09/06 01:39:13;;;;;;;3.45;2.95;;;11.30;99.90;;;;;;4994437;28;20038;-42
2021/09/06 01:41:38;;;;;;;4.28;2.92;;;11.20;99.90;;;;;;4993679;28;20044;-42
2021/09/06 01:44:04;;;;;;;7.53;3.00;;;11.20;99.90;;;;;;4994395;28;20026;-41
2021/09/06 01:46:34;;;;;;;5.13;3.20;;;11.20;99.90;;;;;;4994351;28;20505;-42
2021/09/06 01:49:00;;;;;;;6.22;3.42;;;11.10;99.90;;;;;;4994209;28;20081;-44
2021/09/06 01:51:27;;;;;;;5.20;3.10;;;11.10;99.90;;;;;;4994388;28;20038;-41
2021/09/06 01:53:54;;;;;;;4.20;3.20;;;11.00;99.90;;;;;;4994309;28;20032;-42
2021/09/06 01:56:20;;;;;;;4.85;3.33;;;10.90;99.90;;;;;;4993216;28;20096;-42
2021/09/06 01:58:45;;;;;;;4.57;2.80;;;10.90;99.90;;;;;;4994104;28;20041;-43
2021/09/06 02:01:11;;;;;;;6.68;2.90;;;10.90;99.90;;;;;;4993960;28;20032;-43
2021/09/06 02:03:37;;;;;;;6.68;3.22;;;10.90;99.90;;;;;;4994006;28;20056;-42
2021/09/06 02:06:02;;;;;;;6.07;3.30;;;10.80;99.90;;;;;;4994004;28;20022;-42
2021/09/06 02:08:28;;;;;;;5.50;2.90;;;10.80;99.90;;;;;;4994013;28;20049;-42
2021/09/06 02:10:54;;;;;;;5.05;3.42;;;10.80;99.90;;;;;;4993605;28;20030;-42
2021/09/06 02:13:20;;;;;;;6.82;3.80;;;10.80;99.90;;;;;;4992836;28;20030;-43
2021/09/06 02:15:45;;;;;;;5.05;2.83;;;10.70;99.90;;;;;;4993925;28;20054;-45
2021/09/06 02:18:11;;;;;;;3.95;2.88;;;10.70;99.90;;;;;;4993604;28;20022;-42
2021/09/06 02:20:37;;;;;;;4.90;3.13;;;10.70;99.90;;;;;;4993816;28;20048;-42
2021/09/06 02:23:03;;;;;;;4.35;3.20;;;10.60;99.90;;;;;;4993724;28;20030;-45
2021/09/06 02:25:28;;;;;;;5.47;3.03;;;10.60;99.90;;;;;;4993726;28;20022;-42
2021/09/06 02:27:54;;;;;;;6.10;3.53;;;10.60;99.90;;;;;;4992903;28;20030;-42
2021/09/06 02:30:19;;;;;;;8.35;3.65;;;10.60;99.90;;;;;;4993627;28;20040;-45
2021/09/06 02:32:45;;;;;;;5.47;3.38;;;10.50;99.90;;;;;;4993548;28;20425;-42
2021/09/06 02:35:11;;;;;;;6.00;3.63;;;10.60;99.90;;;;;;4993511;28;20493;-42
2021/09/06 02:37:36;;;;;;;3.92;2.83;;;10.50;99.90;;;;;;4993689;28;20022;-43
2021/09/06 02:40:03;;;;;;;7.22;3.63;;;10.50;99.90;;;;;;4993419;28;20077;-42
2021/09/06 02:42:28;;;;;;;6.60;3.00;;;10.50;99.90;;;;;;4992649;28;20436;-42
2021/09/06 02:44:54;;;;;;;5.80;3.45;;;10.40;99.90;;;;;;4992291;28;20026;-43
2021/09/06 02:47:19;;;;;;;4.65;3.03;;;10.40;99.90;;;;;;4993151;28;20050;-43
2021/09/06 02:49:45;;;;;;;5.25;3.58;;;10.30;99.90;;;;;;4993477;28;20105;-44
2021/09/06 02:52:10;;;;;;;4.60;3.33;;;10.30;99.90;;;;;;4993358;28;20038;-41
2021/09/06 02:54:36;;;;;;;7.03;3.30;;;10.30;99.90;;;;;;4993451;28;20030;-43
2021/09/06 02:57:01;;;;;;;4.53;3.05;;;10.30;99.90;;;;;;4992417;28;20109;-45
2021/09/06 02:59:27;;;;;;;6.03;4.03;;;10.20;99.90;;;;;;4993157;28;20089;-43
2021/09/06 03:01:52;;;;;;;8.45;4.10;;;10.20;99.90;;;;;;4993215;28;20044;-44
2021/09/06 03:04:18;;;;;;;7.40;4.35;;;10.20;99.90;;;;;;4993262;28;20027;-42
2021/09/06 03:06:43;;;;;;;5.78;4.13;;;10.20;99.90;;;;;;4993343;28;20077;-44
2021/09/06 03:09:09;;;;;;;8.07;4.15;;;10.20;99.90;;;;;;4993187;28;20398;-44
2021/09/06 03:11:34;;;;;;;9.60;4.97;;;10.20;99.90;;;;;;4992329;28;20030;-42
2021/09/06 03:14:00;;;;;;;6.45;4.63;;;10.10;99.90;;;;;;4993264;28;20032;-43
2021/09/06 03:16:25;;;;;;;5.85;3.88;;;10.10;99.90;;;;;;4993025;28;20061;-42
2021/09/06 03:18:51;;;;;;;7.25;4.20;;;10.10;99.90;;;;;;4993126;28;20026;-41
2021/09/06 03:21:17;;;;;;;6.63;4.22;;;10.00;99.90;;;;;;4993065;28;20054;-42
2021/09/06 03:23:44;;;;;;;8.55;4.50;;;10.00;99.90;;;;;;4994478;28;20066;-42
2021/09/06 03:26:09;;;;;;;8.63;4.50;;;10.00;99.90;;;;;;4995969;28;20023;-44
2021/09/06 03:28:35;;;;;;;7.88;5.60;;;9.90;99.90;;;;;;4997124;28;20025;-42
2021/09/06 03:31:01;;;;;;;7.60;5.10;;;9.90;99.90;;;;;;4996884;28;20502;-42
2021/09/06 03:33:26;;;;;;;7.60;4.45;;;9.90;99.90;;;;;;4996977;28;20426;-42
2021/09/06 03:35:52;;;;;;;5.40;3.90;;;9.80;99.90;;;;;;4996880;28;20033;-42
2021/09/06 03:38:17;;;;;;;7.50;4.40;;;9.80;99.90;;;;;;4996686;28;20101;-41
2021/09/06 03:40:43;;;;;;;5.25;3.78;;;9.80;99.90;;;;;;4996749;28;20026;-42
2021/09/06 03:43:08;;;;;;;7.60;3.80;;;9.70;99.90;;;;;;4995729;28;20475;-45
2021/09/06 03:45:35;;;;;;;6.78;3.60;;;9.70;99.90;;;;;;4996574;28;20054;-44
2021/09/06 03:48:01;;;;;;;6.95;3.70;;;9.70;99.90;;;;;;4996376;28;20046;-42
2021/09/06 03:50:26;;;;;;;5.47;3.58;;;9.70;99.90;;;;;;4996552;28;20026;-43
2021/09/06 03:52:52;;;;;;;7.47;4.00;;;9.60;99.90;;;;;;4996631;28;20397;-45
2021/09/06 03:55:18;;;;;;;5.22;3.20;;;9.60;99.90;;;;;;4996427;28;20030;-42
2021/09/06 03:57:44;;;;;;;6.30;4.00;;;9.60;99.90;;;;;;4995702;28;20037;-42
2021/09/06 04:00:09;;;;;;;7.35;4.35;;;9.50;99.90;;;;;;4996230;28;20035;-47
2021/09/06 04:02:35;;;;;;;9.02;4.97;;;9.50;99.90;;;;;;4996370;28;20038;-44
2021/09/06 04:05:00;;;;;;;9.07;5.45;;;9.50;99.90;;;;;;4996384;28;20458;-45
2021/09/06 04:07:27;;;;;;;8.55;4.63;;;9.50;99.90;;;;;;4995938;28;20077;-46
2021/09/06 04:09:53;;;;;;;8.40;4.35;;;9.60;99.90;;;;;;4988898;28;20026;-44
2021/09/06 04:12:19;;;;;;;6.43;4.18;;;9.50;99.90;;;;;;4995041;28;20069;-43
2021/09/06 04:14:45;;;;;;;6.47;4.30;;;9.50;99.90;;;;;;4995941;28;20038;-44
2021/09/06 04:17:10;;;;;;;7.50;4.00;;;9.40;99.90;;;;;;4995864;28;20050;-42
2021/09/06 04:19:36;;;;;;;5.88;4.35;;;9.40;99.90;;;;;;4995748;28;20026;-44
2021/09/06 04:22:02;;;;;;;8.60;3.70;;;9.40;99.90;;;;;;4994592;28;20022;-41
2021/09/06 04:24:28;;;;;;;6.47;3.63;;;9.40;99.90;;;;;;4995659;28;20100;-42
2021/09/06 04:26:54;;;;;;;6.38;3.70;;;9.40;99.90;;;;;;4994994;28;20026;-44
2021/09/06 04:29:20;;;;;;;5.05;3.10;;;9.30;99.90;;;;;;4995761;28;20034;-44
2021/09/06 04:31:46;;;;;;;7.53;3.83;;;9.30;99.90;;;;;;4995736;28;20037;-44
2021/09/06 04:34:11;;;;;;;5.15;3.05;;;9.30;99.90;;;;;;4995273;28;20023;-44
2021/09/06 04:36:37;;;;;;;4.63;3.25;;;9.30;99.90;;;;;;4995648;28;20026;-43
2021/09/06 04:39:03;;;;;;;4.50;2.72;;;9.30;99.90;;;;;;4995495;28;20105;-42
2021/09/06 04:41:29;;;;;;;6.07;3.33;;;9.30;99.90;;;;;;4994413;28;20444;-41
2021/09/06 04:43:55;;;;;;;6.47;3.78;;;9.30;99.90;;;;;;4995551;28;20030;-46
2021/09/06 04:46:20;;;;;;;5.03;3.42;;;9.40;99.90;;;;;;4995033;28;20042;-43
2021/09/06 04:48:46;;;;;;;6.57;3.35;;;9.40;99.90;;;;;;4995437;28;20030;-45
2021/09/06 04:51:11;;;;;;;5.75;3.53;;;9.40;99.90;;;;;;4995380;28;20030;-41
2021/09/06 04:53:41;;;;;;;6.15;4.03;;;9.50;99.90;;;;;;4995258;28;20485;-42
2021/09/06 04:56:08;;;;;;;5.43;4.10;;;9.50;99.90;;;;;;4994314;28;20050;-43
2021/09/06 04:58:33;;;;;;;7.22;3.72;;;9.50;99.90;;;;;;4994838;28;20030;-43
2021/09/06 05:00:59;;;;;;;6.60;2.97;;;9.60;99.90;;;;;;4995361;28;20511;-43
2021/09/06 05:03:24;;;;;;;4.38;3.13;;;9.60;99.90;;;;;;4995203;28;20033;-41
2021/09/06 05:05:50;;;;;;;6.68;4.15;;;9.70;99.90;;;;;;4993999;28;20462;-44
2021/09/06 05:08:15;;;;;;;9.38;3.25;;;9.70;99.90;;;;;;4991252;28;20049;-45
2021/09/06 05:10:41;;;;;;;4.88;2.85;;;9.80;99.90;;;;;;4993341;28;20385;-42
2021/09/06 05:13:07;;;;;;;6.00;4.07;;;9.90;99.90;;;;;;4992559;28;20055;-44
2021/09/06 05:15:32;;;;;;;6.22;3.00;;;9.90;99.90;;;;;;4992635;28;20036;-42
2021/09/06 05:17:58;;;;;;;5.78;3.75;;;10.10;99.90;;;;;;4993590;28;20513;-43
2021/09/06 05:20:24;;;;;;;6.03;3.65;;;10.20;99.90;;;;;;4992686;28;20027;-44
2021/09/06 05:22:49;;;;;;;5.47;3.17;;;10.30;99.90;;;;;;4993514;28;20034;-42
2021/09/06 05:25:15;;;;;;;4.60;3.63;;;11.00;99.90;;;;;;4993520;28;20027;-45
2021/09/06 05:27:41;;;;;;;6.28;3.20;;;11.90;99.90;;;;;;4992467;28;20034;-44
2021/09/06 05:30:08;;;;;;;8.57;3.90;;;12.80;99.90;;;;;;4992121;28;20034;-43
2021/09/06 05:32:33;;;;;;;7.75;5.10;;;13.70;99.90;;;;;;4993530;28;20026;-47
2021/09/06 05:34:59;;;;;;;7.35;4.60;;;14.30;99.90;;;;;;4993991;28;20077;-44
2021/09/06 05:37:24;;;;;;;7.55;3.97;;;14.90;99.90;;;;;;4994563;28;20030;-44
2021/09/06 05:39:50;;;;;;;6.03;3.53;;;15.50;99.90;;;;;;4994554;28;20026;-43
2021/09/06 05:42:16;;;;;;;4.50;3.03;;;16.10;99.90;;;;;;4993033;28;20370;-44
2021/09/06 05:44:41;;;;;;;4.57;2.85;;;16.60;99.90;;;;;;4994086;28;20157;-43
2021/09/06 05:47:07;;;;;;;3.70;2.92;;;17.30;99.90;;;;;;4993549;28;20055;-45
2021/09/06 05:49:33;;;;;;;4.85;3.08;;;18.00;99.90;;;;;;4994325;28;20116;-47
2021/09/06 05:51:59;;;;;;;4.80;3.25;;;18.50;99.90;;;;;;4994404;28;20327;-47
2021/09/06 05:54:25;;;;;;;4.93;2.85;;;18.90;99.90;;;;;;4994475;28;20069;-43
2021/09/06 05:56:50;;;;;;;4.53;2.65;;;19.20;99.90;;;;;;4993010;28;20032;-43
2021/09/06 05:59:15;;;;;;;3.33;2.78;;;19.50;99.90;;;;;;4993966;28;20030;-43
2021/09/06 06:01:41;;;;;;;6.20;2.53;;;19.90;99.90;;;;;;4994089;28;20355;-44
2021/09/06 06:04:07;;;;;;;4.40;2.63;;;20.30;99.90;;;;;;4994139;28;20089;-46
2021/09/06 06:06:32;;;;;;;3.95;2.40;;;20.70;98.20;;;;;;4993945;28;20022;-43
2021/09/06 06:08:58;;;;;;;3.60;2.60;;;21.20;97.30;;;;;;4993883;28;20485;-43
2021/09/06 06:11:23;;;;;;;3.78;2.30;;;21.40;94.90;;;;;;4992651;28;20045;-44
2021/09/06 06:13:49;;;;;;;4.63;2.40;;;21.70;93.40;;;;;;4993734;28;20033;-42
2021/09/06 06:16:15;;;;;;;6.80;2.55;;;22.10;92.30;;;;;;4993917;28;20455;-43
2021/09/06 06:18:40;;;;;;;5.60;2.50;;;22.20;87.80;;;;;;4993671;28;20042;-42
2021/09/06 06:21:06;;;;;;;4.55;2.80;;;22.10;81.20;;;;;;4993844;28;20023;-46
2021/09/06 06:23:31;;;;;;;5.40;3.65;;;22.20;80.20;;;;;;4993722;28;20030;-45
2021/09/06 06:25:57;;;;;;;3.58;2.45;;;22.10;65.60;;;;;;4992525;28;20033;-48
2021/09/06 06:28:22;;;;;;;3.53;2.78;;;22.20;73.60;;;;;;4993588;28;20026;-43
2021/09/06 06:30:48;;;;;;;3.67;2.63;;;22.40;71.80;;;;;;4993627;28;20098;-43
2021/09/06 06:33:13;;;;;;;4.07;2.90;;;22.40;69.90;;;;;;4993817;28;20026;-42
2021/09/06 06:35:39;;;;;;;3.33;2.17;;;22.80;64.60;;;;;;4993533;28;20106;-48
2021/09/06 06:38:05;;;;;;;4.75;2.88;;;22.90;67.80;;;;;;4993617;28;20026;-46
2021/09/06 06:40:31;;;;;;;4.75;2.92;;;23.30;64.10;;;;;;4993424;28;20446;-43
2021/09/06 06:42:56;;;;;;;4.32;2.75;;;23.40;63.40;;;;;;4992046;28;20109;-44
2021/09/06 06:45:22;;;;;;;3.88;2.65;;;23.90;62.00;;;;;;4993437;28;20034;-44
2021/09/06 06:47:47;;;;;;;4.72;2.95;;;24.20;60.30;;;;;;4993268;28;20133;-44
2021/09/06 06:50:13;;;;;;;5.82;3.40;;;24.20;59.50;;;;;;4993470;28;20034;-45
2021/09/06 06:52:39;;;;;;;4.15;3.20;;;24.30;55.60;;;;;;4993354;28;20461;-45
2021/09/06 06:55:05;;;;;;;6.50;3.72;;;24.30;53.40;;;;;;4992161;28;20117;-44
2021/09/06 06:57:31;;;;;;;4.45;3.25;;;24.20;52.10;;;;;;4991740;28;20105;-45
2021/09/06 06:59:56;;;;;;;6.30;3.17;;;24.40;47.10;;;;;;4993282;28;20118;-46
2021/09/06 07:02:22;;;;;;;3.38;2.97;;;24.70;51.60;;;;;;4993352;28;20026;-46
2021/09/06 07:04:47;;;;;;;4.95;3.45;;;25.30;50.50;;;;;;4993140;28;20501;-43
2021/09/06 07:07:13;;;;;;;4.35;2.75;;;25.30;46.90;;;;;;4993235;28;20474;-44
2021/09/06 07:09:38;;;;;;;2.75;2.35;;;25.00;45.80;;;;;;4993115;28;20101;-43
2021/09/06 07:12:04;;;;;;;3.13;2.50;;;25.00;48.60;;;;;;4991887;28;20096;-44
2021/09/06 07:14:29;;;;;;;4.70;3.38;;;25.40;46.80;;;;;;4993049;28;20041;-44
2021/09/06 07:16:55;;;;;;;3.58;2.72;;;25.60;45.00;;;;;;4993152;28;20026;-43
2021/09/06 07:19:20;;;;;;;5.15;3.08;;;25.90;45.10;;;;;;4993102;28;20038;-46
2021/09/06 07:21:46;;;;;;;5.30;2.92;;;26.20;44.20;;;;;;4993050;28;20390;-44
2021/09/06 07:24:11;;;;;;;3.85;2.38;;;26.00;41.60;;;;;;4993123;28;20474;-43
2021/09/06 07:26:37;;;;;;;4.05;2.50;;;26.30;42.50;;;;;;4991683;28;20022;-44
2021/09/06 07:29:03;;;;;;;3.53;2.60;;;26.50;41.40;;;;;;4993039;28;20130;-45
2021/09/06 07:31:28;;;;;;;5.13;3.15;;;26.70;40.70;;;;;;4993037;28;20085;-44
2021/09/06 07:33:54;;;;;;;5.07;2.60;;;27.10;38.40;;;;;;4992963;28;20027;-46
2021/09/06 07:36:20;;;;;;;3.38;2.67;;;26.90;37.30;;;;;;4993054;28;20417;-43
2021/09/06 07:38:45;;;;;;;9.48;2.90;;;26.50;37.60;;;;;;4992831;28;20038;-43
2021/09/06 07:41:11;;;;;;;4.55;3.60;;;26.70;37.60;;;;;;4991711;28;20452;-43
2021/09/06 07:43:36;;;;;;;3.95;2.95;;;26.70;35.20;;;;;;4992747;28;20022;-43
2021/09/06 07:46:02;;;;;;;3.55;2.50;;;27.00;35.00;;;;;;4992809;28;20046;-43
2021/09/06 07:48:27;;;;;;;3.75;3.20;;;27.20;32.90;;;;;;4992909;28;20363;-43
2021/09/06 07:50:53;;;;;;;4.22;3.13;;;27.30;33.90;;;;;;4992779;28;20053;-43
2021/09/06 07:53:19;;;;;;;4.28;2.80;;;27.20;32.70;;;;;;4992900;28;20077;-43
2021/09/06 07:55:44;;;;;;;4.68;2.47;;;27.00;33.10;;;;;;4992749;28;20022;-43
2021/09/06 07:58:10;;;;;;;3.97;2.90;;;27.50;33.30;;;;;;4991396;28;20077;-43
2021/09/06 08:00:36;;;;;;;4.90;3.03;;;28.10;32.70;;;;;;4992664;28;20466;-50
2021/09/06 08:03:01;;;;;;;3.80;3.15;;;28.30;31.00;;;;;;4992854;28;20361;-43
2021/09/06 08:05:30;;;;;;;4.45;3.45;;;28.20;30.50;;;;;;4992790;28;20046;-45
2021/09/06 08:07:56;;;;;;;4.43;3.28;;;28.20;29.40;;;;;;4992684;28;20022;-45
2021/09/06 08:10:22;;;;;;;4.38;2.75;;;28.20;28.80;;;;;;4994857;28;20037;-46
2021/09/06 08:12:48;;;;;;;3.45;2.72;;;28.10;30.00;;;;;;4994846;28;20374;-48
2021/09/06 08:15:14;;;;;;;4.63;3.35;;;28.00;30.50;;;;;;4996157;28;20030;-47
2021/09/06 08:17:40;;;;;;;5.05;4.47;;;27.90;29.40;;;;;;4996012;28;20050;-46
2021/09/06 08:20:12;;;;;;;5.97;3.97;;;28.00;29.50;;;;;;4996145;28;20027;-48
2021/09/06 08:22:39;;;;;;;4.85;3.28;;;28.00;28.60;;;;;;4996008;28;20050;-46
2021/09/06 08:25:06;;;;;;;3.92;3.13;;;27.90;28.80;;;;;;4995969;28;20454;-46
2021/09/06 08:27:32;;;;;;;4.45;3.05;;;28.10;28.90;;;;;;4994714;28;20480;-46
2021/09/06 08:29:58;;;;;;;5.03;3.45;;;28.00;28.50;;;;;;4995872;28;20069;-46
2021/09/06 08:32:23;;;;;;;3.70;3.03;;;28.00;28.40;;;;;;4995826;28;20062;-45
2021/09/06 08:34:49;;;;;;;4.63;3.45;;;28.30;28.00;;;;;;4995737;28;20101;-46
2021/09/06 08:37:16;;;;;;;5.32;3.30;;;28.40;27.20;;;;;;4995819;28;20029;-44
2021/09/06 08:39:41;;;;;;;4.13;2.85;;;28.70;26.90;;;;;;4995526;28;20069;-44
2021/09/06 08:42:07;;;;;;;5.22;2.88;;;28.60;27.30;;;;;;4994585;28;20066;-46
2021/09/06 08:44:33;;;;;;;4.50;3.67;;;29.00;27.40;;;;;;4995647;28;20027;-44
2021/09/06 08:47:00;;;;;;;6.90;3.67;;;29.10;26.70;;;;;;4995391;28;20053;-46
2021/09/06 08:49:25;;;;;;;5.20;3.80;;;29.00;25.70;;;;;;4995579;28;20079;-46
2021/09/06 08:51:51;;;;;;;5.32;3.63;;;28.80;25.50;;;;;;4995437;28;20066;-44
2021/09/06 08:54:17;;;;;;;7.30;3.08;;;29.40;25.90;;;;;;4995365;28;20022;-44
2021/09/06 08:56:43;;;;;;;7.05;3.20;;;30.00;25.50;;;;;;4994082;28;20413;-45
2021/09/06 08:59:08;;;;;;;7.18;3.85;;;30.50;24.90;;;;;;4995288;28;20022;-43
2021/09/06 09:01:42;;;;;;;7.13;4.00;;;30.70;24.20;;;;;;4995563;28;20077;-45
2021/09/06 09:04:19;;;;;;;5.93;3.80;;;30.50;22.60;;;;;;4995236;28;20113;-43
2021/09/06 09:06:52;;;;;;;5.47;4.05;;;30.60;22.60;;;;;;4995104;28;20478;-43
2021/09/06 09:09:29;;;;;;;6.13;4.28;;;30.40;22.80;;;;;;4995435;28;20109;-47
2021/09/06 09:12:11;;;;;;;5.00;3.58;;;30.30;22.70;;;;;;4993854;28;20061;-43
2021/09/06 09:14:41;;;;;;;6.15;4.85;;;30.40;23.10;;;;;;4995035;28;20366;-47
2021/09/06 09:17:06;;;;;;;6.43;4.18;;;30.20;22.60;;;;;;4995072;28;20098;-43
2021/09/06 09:19:32;;;;;;;5.53;4.35;;;29.70;23.30;;;;;;4994766;28;20170;-43
2021/09/06 09:22:01;;;;;;;5.13;4.15;;;29.80;23.60;;;;;;4993769;28;20027;-46
2021/09/06 09:24:28;;;;;;;7.53;5.60;;;29.80;23.50;;;;;;4994909;28;20033;-43
2021/09/06 09:27:00;;;;;;;5.78;4.07;;;29.30;23.20;;;;;;4993458;28;20065;-46
2021/09/06 09:29:26;;;;;;;5.80;4.53;;;29.50;23.80;;;;;;4994832;28;20030;-43
2021/09/06 09:31:54;;;;;;;6.20;5.07;;;29.50;23.60;;;;;;4994796;28;20057;-44
2021/09/06 09:34:20;;;;;;;6.03;4.43;;;29.30;23.40;;;;;;4994772;28;20038;-43
2021/09/06 09:36:46;;;;;;;5.60;4.45;;;29.10;23.50;;;;;;4994569;28;20030;-43
2021/09/06 09:39:19;;;;;;;7.20;4.93;;;28.70;24.10;;;;;;4994413;28;20109;-43
2021/09/06 09:41:48;;;;;;;6.55;4.82;;;28.40;24.50;;;;;;4993107;28;20502;-43
2021/09/06 09:44:20;;;;;;;6.15;4.50;;;28.40;25.00;;;;;;4994528;28;20493;-45
2021/09/06 09:46:53;;;;;;;8.65;5.68;;;28.60;25.00;;;;;;4994196;28;20046;-45
2021/09/06 09:49:19;;;;;;;6.20;4.95;;;28.20;24.80;;;;;;4994430;28;20585;-43
2021/09/06 09:51:45;;;;;;;7.50;5.63;;;27.80;25.40;;;;;;4994318;28;20073;-44
2021/09/06 09:54:10;;;;;;;6.85;4.38;;;27.30;26.30;;;;;;4994379;28;20370;-46
2021/09/06 09:56:36;;;;;;;6.80;4.40;;;27.40;26.70;;;;;;4993010;28;20466;-43
2021/09/06 09:59:02;;;;;;;4.78;4.15;;;27.20;27.20;;;;;;4993922;28;20541;-47
2021/09/06 10:01:41;;;;;;;6.32;3.85;;;27.30;27.10;;;;;;4994106;28;20030;-45
2021/09/06 10:04:08;;;;;;;5.68;4.82;;;27.50;27.00;;;;;;4994158;28;20438;-43
2021/09/06 10:06:36;;;;;;;6.47;4.55;;;27.20;27.50;;;;;;4994232;28;20034;-43
2021/09/06 10:09:01;;;;;;;7.45;5.78;;;26.80;28.50;;;;;;4994055;28;20389;-45
2021/09/06 10:11:35;;;;;;;10.98;5.35;;;26.20;29.20;;;;;;4992699;28;20034;-43
2021/09/06 10:14:13;;;;;;;7.18;5.15;;;25.50;30.50;;;;;;4993675;28;20022;-44
2021/09/06 10:16:40;;;;;;;6.90;4.47;;;25.00;32.40;;;;;;4993953;28;20073;-44
2021/09/06 10:19:07;;;;;;;6.35;4.65;;;24.60;34.70;;;;;;4993826;28;20465;-43
2021/09/06 10:21:46;;;;;;;7.75;4.60;;;24.30;35.20;;;;;;4993923;28;20064;-43
2021/09/06 10:24:21;;;;;;;9.65;5.93;;;24.20;36.10;;;;;;4993652;28;20023;-44
2021/09/06 10:26:47;;;;;;;7.55;5.80;;;24.00;37.80;;;;;;4992514;28;20022;-43
2021/09/06 10:29:18;;;;;;;5.88;4.90;;;23.60;39.80;;;;;;4993751;28;20089;-46
2021/09/06 10:31:45;;;;;;;13.15;5.60;;;23.50;40.10;;;;;;4993501;28;20485;-45
2021/09/06 10:34:21;;;;;;;8.30;5.03;;;23.30;41.20;;;;;;4993502;28;20049;-43
2021/09/06 10:37:01;;;;;;;5.90;4.20;;;23.20;44.10;;;;;;4993476;28;20034;-45
2021/09/06 10:39:26;;;;;;;6.00;4.45;;;23.20;42.40;;;;;;4993537;28;20023;-45
2021/09/06 10:41:53;;;;;;;7.85;5.63;;;23.30;41.70;;;;;;4992248;28;20170;-43
2021/09/06 10:44:19;;;;;;;7.20;4.68;;;23.30;42.70;;;;;;4993616;28;20030;-43
2021/09/06 10:46:57;;;;;;;5.47;3.65;;;23.20;43.50;;;;;;4993338;28;20505;-43
2021/09/06 10:49:25;;;;;;;7.93;5.13;;;23.20;45.50;;;;;;4993403;28;20026;-41
2021/09/06 10:51:52;;;;;;;10.77;6.47;;;23.00;45.10;;;;;;4993312;28;20494;-44
2021/09/06 10:54:17;;;;;;;11.10;5.47;;;23.00;47.00;;;;;;4993619;28;20084;-44
2021/09/06 10:56:43;;;;;;;5.80;4.15;;;22.90;47.30;;;;;;4992113;28;20030;-43
2021/09/06 10:59:08;;;;;;;5.93;4.72;;;22.80;46.80;;;;;;4993179;28;20526;-43
2021/09/06 11:01:36;;;;;;;7.88;4.50;;;22.60;47.60;;;;;;4993221;28;20038;-47
2021/09/06 11:04:02;;;;;;;8.27;5.15;;;22.70;47.80;;;;;;4993273;28;20466;-45
2021/09/06 11:06:28;;;;;;;11.38;6.50;;;22.80;48.70;;;;;;4993365;28;20030;-45
2021/09/06 11:08:54;;;;;;;9.23;6.68;;;22.70;50.90;;;;;;4993175;28;20026;-44
2021/09/06 11:11:20;;;;;;;9.85;6.45;;;22.50;51.50;;;;;;4992016;28;20027;-44
2021/09/06 11:13:48;;;;;;;8.05;5.82;;;22.40;51.80;;;;;;4993120;28;20237;-45
2021/09/06 11:16:16;;;;;;;7.47;5.75;;;22.30;52.70;;;;;;4993007;28;20105;-46
2021/09/06 11:18:44;;;;;;;7.53;6.00;;;22.20;53.50;;;;;;4993129;28;20033;-46
2021/09/06 11:21:11;;;;;;;7.30;5.43;;;22.30;53.70;;;;;;4991949;28;20141;-45
2021/09/06 11:23:38;;;;;;;8.52;5.55;;;22.40;53.90;;;;;;4993287;28;20113;-46
2021/09/06 11:26:06;;;;;;;8.55;5.78;;;22.50;53.40;;;;;;4991743;28;20540;-43
2021/09/06 11:28:32;;;;;;;6.57;4.88;;;22.50;52.60;;;;;;4993088;28;20473;-43
2021/09/06 11:30:58;;;;;;;6.55;4.90;;;22.50;52.50;;;;;;4992879;28;20032;-42
2021/09/06 11:33:23;;;;;;;10.95;6.53;;;22.60;52.70;;;;;;4993095;28;20022;-45
2021/09/06 11:35:49;;;;;;;12.77;7.35;;;22.70;54.20;;;;;;4993010;28;20085;-45
2021/09/06 11:38:17;;;;;;;12.18;7.25;;;22.60;54.40;;;;;;4992928;28;20081;-44
2021/09/06 11:40:53;;;;;;;8.55;6.30;;;22.50;55.70;;;;;;4992546;28;20034;-45
2021/09/06 11:43:19;;;;;;;8.63;6.22;;;22.50;56.20;;;;;;4992824;28;20031;-43
2021/09/06 11:45:45;;;;;;;8.45;5.75;;;22.50;55.60;;;;;;4995731;28;20355;-47
2021/09/06 11:48:11;;;;;;;8.13;5.38;;;22.70;55.10;;;;;;4996584;28;20034;-47
2021/09/06 11:50:41;;;;;;;11.38;7.25;;;22.90;53.90;;;;;;4996673;28;20089;-42
2021/09/06 11:53:13;;;;;;;11.20;7.40;;;23.00;53.70;;;;;;4996539;28;20206;-44
2021/09/06 11:55:52;;;;;;;8.50;6.32;;;23.00;53.50;;;;;;4996636;28;20022;-49
2021/09/06 11:58:23;;;;;;;9.35;6.32;;;23.10;52.60;;;;;;4996384;28;20026;-46
2021/09/06 12:00:49;;;;;;;9.27;6.70;;;23.30;51.50;;;;;;4996470;28;20065;-47
2021/09/06 12:03:23;;;;;;;10.73;6.72;;;23.50;50.40;;;;;;4996382;28;20401;-45
2021/09/06 12:05:51;;;;;;;7.88;6.13;;;23.70;49.60;;;;;;4996477;28;20022;-45
2021/09/06 12:08:17;;;;;;;8.38;5.95;;;23.70;49.70;;;;;;4996075;28;20371;-45
2021/09/06 12:10:45;;;;;;;6.00;5.13;;;23.60;49.20;;;;;;4995864;28;20034;-44
2021/09/06 12:13:20;;;;;;;8.18;5.72;;;23.70;49.30;;;;;;4996115;28;20497;-46
2021/09/06 12:15:57;;;;;;;9.18;5.75;;;23.80;48.90;;;;;;4996235;28;20032;-45
2021/09/06 12:18:32;;;;;;;8.55;6.68;;;23.80;48.90;;;;;;4996183;28;20038;-45
2021/09/06 12:21:03;;;;;;;8.45;5.03;;;23.80;48.90;;;;;;4995795;28;20023;-43
2021/09/06 12:23:31;;;;;;;10.57;6.55;;;23.70;49.60;;;;;;4996085;28;20210;-43
2021/09/06 12:25:57;;;;;;;8.43;6.20;;;23.60;49.60;;;;;;4994779;28;20026;-44
2021/09/06 12:28:23;;;;;;;9.88;6.25;;;23.60;49.70;;;;;;4992001;28;20026;-45
2021/09/06 12:30:58;;;;;;;8.77;5.38;;;23.50;49.90;;;;;;4995700;28;20041;-43
2021/09/06 12:33:24;;;;;;;7.28;5.25;;;23.50;50.00;;;;;;4995485;28;20439;-47
2021/09/06 12:35:49;;;;;;;9.80;6.30;;;23.60;49.80;;;;;;4995654;28;20069;-46
2021/09/06 12:38:15;;;;;;;9.25;7.00;;;23.80;50.40;;;;;;4995526;28;20473;-45
2021/09/06 12:40:40;;;;;;;8.88;6.88;;;24.00;49.00;;;;;;4995214;28;20035;-50
2021/09/06 12:43:06;;;;;;;11.38;6.63;;;23.90;48.30;;;;;;4994809;28;20246;-45
2021/09/06 12:45:31;;;;;;;9.48;6.68;;;23.90;48.80;;;;;;4995412;28;20436;-46